sensor_id;sensor_type;location;lat;lon;timestamp;temperature;humidity
41294;DHT22;27037;52.010;4.446;2022-10-16T00:00:37;14.70;99.90
41294;DHT22;27037;52.010;4.446;2022-10-16T00:03:04;14.80;99.90
41294;DHT22;27037;52.010;4.446;2022-10-16T00:05:30;14.80;99.90
41294;DHT22;27037;52.010;4.446;2022-10-16T00:07:55;14.80;99.90
41294;DHT22;27037;52.010;4.446;2022-10-16T00:10:21;14.80;99.90
41294;DHT22;27037;52.010;4.446;2022-10-16T00:12:47;14.90;99.90
41294;DHT22;27037;52.010;4.446;2022-10-16T00:15:13;14.90;99.90
41294;DHT22;27037;52.010;4.446;2022-10-16T00:17:39;14.90;99.90
41294;DHT22;27037;52.010;4.446;2022-10-16T00:20:05;14.90;99.90
41294;DHT22;27037;52.010;4.446;2022-10-16T00:22:30;14.90;99.90
41294;DHT22;27037;52.010;4.446;2022-10-16T00:24:56;14.90;99.90
41294;DHT22;27037;52.010;4.446;2022-10-16T00:27:22;14.90;99.90
41294;DHT22;27037;52.010;4.446;2022-10-16T00:29:51;14.90;99.90
41294;DHT22;27037;52.010;4.446;2022-10-16T00:32:18;15.00;99.90
41294;DHT22;27037;52.010;4.446;2022-10-16T00:34:44;15.00;99.90
41294;DHT22;27037;52.010;4.446;2022-10-16T00:37:10;15.00;99.90
41294;DHT22;27037;52.010;4.446;2022-10-16T00:39:36;15.00;99.90
41294;DHT22;27037;52.010;4.446;2022-10-16T00:42:02;15.00;99.90
41294;DHT22;27037;52.010;4.446;2022-10-16T00:44:50;15.00;99.90
41294;DHT22;27037;52.010;4.446;2022-10-16T00:47:37;15.00;99.90
41294;DHT22;27037;52.010;4.446;2022-10-16T00:50:16;15.00;99.90
41294;DHT22;27037;52.010;4.446;2022-10-16T00:52:46;15.00;99.90
41294;DHT22;27037;52.010;4.446;2022-10-16T00:55:13;15.00;99.90
41294;DHT22;27037;52.010;4.446;2022-10-16T00:57:39;15.00;99.90
41294;DHT22;27037;52.010;4.446;2022-10-16T01:00:07;14.90;99.90
41294;DHT22;27037;52.010;4.446;2022-10-16T01:02:33;14.90;99.90
41294;DHT22;27037;52.010;4.446;2022-10-16T01:04:59;14.90;99.90
41294;DHT22;27037;52.010;4.446;2022-10-16T01:10:31;14.80;99.90
41294;DHT22;27037;52.010;4.446;2022-10-16T01:13:18;14.80;99.90
41294;DHT22;27037;52.010;4.446;2022-10-16T01:15:56;14.70;99.90
41294;DHT22;27037;52.010;4.446;2022-10-16T01:21:04;14.60;99.90
41294;DHT22;27037;52.010;4.446;2022-10-16T01:26:23;14.50;99.90
41294;DHT22;27037;52.010;4.446;2022-10-16T01:28:57;14.40;99.90
41294;DHT22;27037;52.010;4.446;2022-10-16T01:31:27;14.40;99.90
41294;DHT22;27037;52.010;4.446;2022-10-16T01:34:03;14.30;99.90
41294;DHT22;27037;52.010;4.446;2022-10-16T01:36:37;14.30;99.90
41294;DHT22;27037;52.010;4.446;2022-10-16T01:39:05;14.30;99.90
41294;DHT22;27037;52.010;4.446;2022-10-16T01:41:42;14.20;99.90
41294;DHT22;27037;52.010;4.446;2022-10-16T01:44:12;14.20;99.90
41294;DHT22;27037;52.010;4.446;2022-10-16T01:46:44;14.20;99.90
41294;DHT22;27037;52.010;4.446;2022-10-16T01:49:11;14.20;99.90
41294;DHT22;27037;52.010;4.446;2022-10-16T01:51:38;14.10;99.90
41294;DHT22;27037;52.010;4.446;2022-10-16T01:54:05;14.10;99.90
41294;DHT22;27037;52.010;4.446;2022-10-16T01:56:34;14.10;99.90
41294;DHT22;27037;52.010;4.446;2022-10-16T01:59:06;14.10;99.90
41294;DHT22;27037;52.010;4.446;2022-10-16T02:01:34;14.00;99.90
41294;DHT22;27037;52.010;4.446;2022-10-16T02:04:14;14.00;99.90
41294;DHT22;27037;52.010;4.446;2022-10-16T02:06:41;14.00;99.90
41294;DHT22;27037;52.010;4.446;2022-10-16T02:09:07;14.00;99.90
41294;DHT22;27037;52.010;4.446;2022-10-16T02:11:32;14.00;99.90
41294;DHT22;27037;52.010;4.446;2022-10-16T02:14:04;14.00;99.90
41294;DHT22;27037;52.010;4.446;2022-10-16T02:16:41;14.00;99.90
41294;DHT22;27037;52.010;4.446;2022-10-16T02:19:08;14.00;99.90
41294;DHT22;27037;52.010;4.446;2022-10-16T02:27:01;14.00;99.90
41294;DHT22;27037;52.010;4.446;2022-10-16T02:29:29;14.00;99.90
41294;DHT22;27037;52.010;4.446;2022-10-16T02:32:02;14.00;99.90
41294;DHT22;27037;52.010;4.446;2022-10-16T02:34:31;14.00;99.90
41294;DHT22;27037;52.010;4.446;2022-10-16T02:36:58;14.00;99.90
41294;DHT22;27037;52.010;4.446;2022-10-16T02:39:27;14.00;99.90
41294;DHT22;27037;52.010;4.446;2022-10-16T02:41:53;14.00;99.90
41294;DHT22;27037;52.010;4.446;2022-10-16T02:44:19;14.00;99.90
41294;DHT22;27037;52.010;4.446;2022-10-16T02:46:44;14.00;99.90
41294;DHT22;27037;52.010;4.446;2022-10-16T02:49:10;13.90;99.90
41294;DHT22;27037;52.010;4.446;2022-10-16T02:51:35;13.90;99.90
41294;DHT22;27037;52.010;4.446;2022-10-16T02:54:02;13.90;99.90
41294;DHT22;27037;52.010;4.446;2022-10-16T02:56:28;13.90;99.90
41294;DHT22;27037;52.010;4.446;2022-10-16T02:58:55;13.90;99.90
41294;DHT22;27037;52.010;4.446;2022-10-16T03:01:20;13.90;99.90
41294;DHT22;27037;52.010;4.446;2022-10-16T03:03:46;13.90;99.90
41294;DHT22;27037;52.010;4.446;2022-10-16T03:06:12;13.90;99.90
41294;DHT22;27037;52.010;4.446;2022-10-16T03:08:37;13.90;99.90
41294;DHT22;27037;52.010;4.446;2022-10-16T03:11:03;13.90;99.90
41294;DHT22;27037;52.010;4.446;2022-10-16T03:13:28;14.00;99.90
41294;DHT22;27037;52.010;4.446;2022-10-16T03:15:54;14.00;99.90
41294;DHT22;27037;52.010;4.446;2022-10-16T03:18:19;14.00;99.90
41294;DHT22;27037;52.010;4.446;2022-10-16T03:20:45;14.00;99.90
41294;DHT22;27037;52.010;4.446;2022-10-16T03:23:11;14.10;99.90
41294;DHT22;27037;52.010;4.446;2022-10-16T03:25:37;14.10;99.90
41294;DHT22;27037;52.010;4.446;2022-10-16T03:28:02;14.10;99.90
41294;DHT22;27037;52.010;4.446;2022-10-16T03:30:28;14.10;99.90
41294;DHT22;27037;52.010;4.446;2022-10-16T03:32:54;14.10;99.90
41294;DHT22;27037;52.010;4.446;2022-10-16T03:35:23;14.10;99.90
41294;DHT22;27037;52.010;4.446;2022-10-16T03:37:49;14.10;99.90
41294;DHT22;27037;52.010;4.446;2022-10-16T03:40:16;14.10;99.90
41294;DHT22;27037;52.010;4.446;2022-10-16T03:42:45;14.10;99.90
41294;DHT22;27037;52.010;4.446;2022-10-16T03:45:11;14.10;99.90
41294;DHT22;27037;52.010;4.446;2022-10-16T03:47:36;14.10;99.90
41294;DHT22;27037;52.010;4.446;2022-10-16T03:50:03;14.10;99.90
41294;DHT22;27037;52.010;4.446;2022-10-16T03:52:28;14.10;99.90
41294;DHT22;27037;52.010;4.446;2022-10-16T03:54:54;14.10;99.90
41294;DHT22;27037;52.010;4.446;2022-10-16T03:57:19;14.20;99.90
41294;DHT22;27037;52.010;4.446;2022-10-16T03:59:46;14.10;99.90
41294;DHT22;27037;52.010;4.446;2022-10-16T04:02:11;14.10;99.90
41294;DHT22;27037;52.010;4.446;2022-10-16T04:04:37;14.10;99.90
41294;DHT22;27037;52.010;4.446;2022-10-16T04:07:02;14.00;99.90
41294;DHT22;27037;52.010;4.446;2022-10-16T04:09:28;14.00;99.90
41294;DHT22;27037;52.010;4.446;2022-10-16T04:11:54;14.00;99.90
41294;DHT22;27037;52.010;4.446;2022-10-16T04:14:19;14.00;99.90
41294;DHT22;27037;52.010;4.446;2022-10-16T04:16:45;14.00;99.90
41294;DHT22;27037;52.010;4.446;2022-10-16T04:19:11;14.00;99.90
41294;DHT22;27037;52.010;4.446;2022-10-16T04:21:36;14.00;99.90
41294;DHT22;27037;52.010;4.446;2022-10-16T04:24:02;14.00;99.90
41294;DHT22;27037;52.010;4.446;2022-10-16T04:26:29;14.00;99.90
41294;DHT22;27037;52.010;4.446;2022-10-16T04:28:54;14.00;99.90
41294;DHT22;27037;52.010;4.446;2022-10-16T04:31:21;14.00;99.90
41294;DHT22;27037;52.010;4.446;2022-10-16T04:33:46;14.00;99.90
41294;DHT22;27037;52.010;4.446;2022-10-16T04:36:12;14.00;99.90
41294;DHT22;27037;52.010;4.446;2022-10-16T04:38:39;14.00;99.90
41294;DHT22;27037;52.010;4.446;2022-10-16T04:41:06;14.00;99.90
41294;DHT22;27037;52.010;4.446;2022-10-16T04:43:32;14.00;99.90
41294;DHT22;27037;52.010;4.446;2022-10-16T04:45:58;14.00;99.90
41294;DHT22;27037;52.010;4.446;2022-10-16T04:48:23;14.00;99.90
41294;DHT22;27037;52.010;4.446;2022-10-16T04:50:49;14.00;99.90
41294;DHT22;27037;52.010;4.446;2022-10-16T04:53:15;14.00;99.90
41294;DHT22;27037;52.010;4.446;2022-10-16T04:55:42;14.00;99.90
41294;DHT22;27037;52.010;4.446;2022-10-16T04:58:08;14.00;99.90
41294;DHT22;27037;52.010;4.446;2022-10-16T05:00:34;14.00;99.90
41294;DHT22;27037;52.010;4.446;2022-10-16T05:03:00;14.00;99.90
41294;DHT22;27037;52.010;4.446;2022-10-16T05:05:26;14.00;99.90
41294;DHT22;27037;52.010;4.446;2022-10-16T05:07:52;14.00;99.90
41294;DHT22;27037;52.010;4.446;2022-10-16T05:10:18;14.00;99.90
41294;DHT22;27037;52.010;4.446;2022-10-16T05:12:44;14.00;99.90
41294;DHT22;27037;52.010;4.446;2022-10-16T05:15:10;14.00;99.90
41294;DHT22;27037;52.010;4.446;2022-10-16T05:17:36;14.00;99.90
41294;DHT22;27037;52.010;4.446;2022-10-16T05:20:02;14.00;99.90
41294;DHT22;27037;52.010;4.446;2022-10-16T05:22:28;14.00;99.90
41294;DHT22;27037;52.010;4.446;2022-10-16T05:24:54;13.90;99.90
41294;DHT22;27037;52.010;4.446;2022-10-16T05:27:20;13.90;99.90
41294;DHT22;27037;52.010;4.446;2022-10-16T05:29:46;13.90;99.90
41294;DHT22;27037;52.010;4.446;2022-10-16T05:32:15;13.80;99.90
41294;DHT22;27037;52.010;4.446;2022-10-16T05:34:41;13.80;99.90
41294;DHT22;27037;52.010;4.446;2022-10-16T05:37:07;13.80;99.90
41294;DHT22;27037;52.010;4.446;2022-10-16T05:39:33;13.70;99.90
41294;DHT22;27037;52.010;4.446;2022-10-16T05:41:59;13.70;99.90
41294;DHT22;27037;52.010;4.446;2022-10-16T05:44:24;13.70;99.90
41294;DHT22;27037;52.010;4.446;2022-10-16T05:46:50;13.70;99.90
41294;DHT22;27037;52.010;4.446;2022-10-16T05:49:15;13.60;99.90
41294;DHT22;27037;52.010;4.446;2022-10-16T05:51:41;13.60;99.90
41294;DHT22;27037;52.010;4.446;2022-10-16T05:54:07;13.60;99.90
41294;DHT22;27037;52.010;4.446;2022-10-16T05:56:33;13.60;99.90
41294;DHT22;27037;52.010;4.446;2022-10-16T05:58:59;13.60;99.90
41294;DHT22;27037;52.010;4.446;2022-10-16T06:01:24;13.60;99.90
41294;DHT22;27037;52.010;4.446;2022-10-16T06:03:51;13.60;99.90
41294;DHT22;27037;52.010;4.446;2022-10-16T06:06:22;13.60;99.90
41294;DHT22;27037;52.010;4.446;2022-10-16T06:08:48;13.60;99.90
41294;DHT22;27037;52.010;4.446;2022-10-16T06:11:20;13.60;99.90
41294;DHT22;27037;52.010;4.446;2022-10-16T06:13:52;13.60;99.90
41294;DHT22;27037;52.010;4.446;2022-10-16T06:16:19;13.60;99.90
41294;DHT22;27037;52.010;4.446;2022-10-16T06:18:45;13.60;99.90
41294;DHT22;27037;52.010;4.446;2022-10-16T06:21:19;13.60;99.90
41294;DHT22;27037;52.010;4.446;2022-10-16T06:23:45;13.60;99.90
41294;DHT22;27037;52.010;4.446;2022-10-16T06:26:16;13.60;99.90
41294;DHT22;27037;52.010;4.446;2022-10-16T06:28:42;13.60;99.90
41294;DHT22;27037;52.010;4.446;2022-10-16T06:31:10;13.60;99.90
41294;DHT22;27037;52.010;4.446;2022-10-16T06:33:36;13.60;99.90
41294;DHT22;27037;52.010;4.446;2022-10-16T06:36:04;13.60;99.90
41294;DHT22;27037;52.010;4.446;2022-10-16T06:38:30;13.60;99.90
41294;DHT22;27037;52.010;4.446;2022-10-16T06:40:55;13.60;99.90
41294;DHT22;27037;52.010;4.446;2022-10-16T06:43:21;13.60;99.90
41294;DHT22;27037;52.010;4.446;2022-10-16T06:45:56;13.60;99.90
41294;DHT22;27037;52.010;4.446;2022-10-16T06:48:23;13.60;99.90
41294;DHT22;27037;52.010;4.446;2022-10-16T06:50:59;13.60;99.90
41294;DHT22;27037;52.010;4.446;2022-10-16T06:53:26;13.60;99.90
41294;DHT22;27037;52.010;4.446;2022-10-16T06:55:52;13.60;99.90
41294;DHT22;27037;52.010;4.446;2022-10-16T06:58:18;13.60;99.90
41294;DHT22;27037;52.010;4.446;2022-10-16T07:00:44;13.60;99.90
41294;DHT22;27037;52.010;4.446;2022-10-16T07:03:09;13.60;99.90
41294;DHT22;27037;52.010;4.446;2022-10-16T07:05:41;13.60;99.90
41294;DHT22;27037;52.010;4.446;2022-10-16T07:08:08;13.60;99.90
41294;DHT22;27037;52.010;4.446;2022-10-16T07:10:34;13.50;99.90
41294;DHT22;27037;52.010;4.446;2022-10-16T07:13:00;13.50;99.90
41294;DHT22;27037;52.010;4.446;2022-10-16T07:15:26;13.50;99.90
41294;DHT22;27037;52.010;4.446;2022-10-16T07:17:51;13.50;99.90
41294;DHT22;27037;52.010;4.446;2022-10-16T07:20:17;13.50;99.90
41294;DHT22;27037;52.010;4.446;2022-10-16T07:22:43;13.50;99.90
41294;DHT22;27037;52.010;4.446;2022-10-16T07:25:09;13.60;99.90
41294;DHT22;27037;52.010;4.446;2022-10-16T07:27:34;13.60;99.90
41294;DHT22;27037;52.010;4.446;2022-10-16T07:30:00;13.60;99.90
41294;DHT22;27037;52.010;4.446;2022-10-16T07:32:26;13.60;99.90
41294;DHT22;27037;52.010;4.446;2022-10-16T07:34:52;13.60;99.90
41294;DHT22;27037;52.010;4.446;2022-10-16T07:37:18;13.70;99.90
41294;DHT22;27037;52.010;4.446;2022-10-16T07:39:43;13.70;99.90
41294;DHT22;27037;52.010;4.446;2022-10-16T07:42:09;13.70;99.90
41294;DHT22;27037;52.010;4.446;2022-10-16T07:44:35;13.70;99.90
41294;DHT22;27037;52.010;4.446;2022-10-16T07:47:01;13.80;99.90
41294;DHT22;27037;52.010;4.446;2022-10-16T07:49:27;13.80;99.90
41294;DHT22;27037;52.010;4.446;2022-10-16T07:51:52;13.80;99.90
41294;DHT22;27037;52.010;4.446;2022-10-16T07:54:18;13.80;99.90
41294;DHT22;27037;52.010;4.446;2022-10-16T07:56:43;13.90;99.90
41294;DHT22;27037;52.010;4.446;2022-10-16T07:59:09;13.90;99.90
41294;DHT22;27037;52.010;4.446;2022-10-16T08:01:34;14.00;99.90
41294;DHT22;27037;52.010;4.446;2022-10-16T08:04:00;14.00;99.90
41294;DHT22;27037;52.010;4.446;2022-10-16T08:06:25;14.00;99.90
41294;DHT22;27037;52.010;4.446;2022-10-16T08:08:51;14.00;99.90
41294;DHT22;27037;52.010;4.446;2022-10-16T08:11:17;14.10;99.90
41294;DHT22;27037;52.010;4.446;2022-10-16T08:13:42;14.10;99.90
41294;DHT22;27037;52.010;4.446;2022-10-16T08:16:08;14.20;99.90
41294;DHT22;27037;52.010;4.446;2022-10-16T08:18:36;14.20;99.90
41294;DHT22;27037;52.010;4.446;2022-10-16T08:21:02;14.30;99.90
41294;DHT22;27037;52.010;4.446;2022-10-16T08:23:28;14.30;99.90
41294;DHT22;27037;52.010;4.446;2022-10-16T08:25:55;14.30;99.90
41294;DHT22;27037;52.010;4.446;2022-10-16T08:28:21;14.40;99.90
41294;DHT22;27037;52.010;4.446;2022-10-16T08:30:47;14.50;99.90
41294;DHT22;27037;52.010;4.446;2022-10-16T08:33:13;14.50;99.90
41294;DHT22;27037;52.010;4.446;2022-10-16T08:35:39;14.60;99.90
41294;DHT22;27037;52.010;4.446;2022-10-16T08:38:05;14.60;99.90
41294;DHT22;27037;52.010;4.446;2022-10-16T08:40:33;14.70;99.90
41294;DHT22;27037;52.010;4.446;2022-10-16T08:46:04;14.90;99.90
41294;DHT22;27037;52.010;4.446;2022-10-16T08:48:51;15.00;99.90
41294;DHT22;27037;52.010;4.446;2022-10-16T08:51:37;15.10;99.90
41294;DHT22;27037;52.010;4.446;2022-10-16T08:54:05;15.10;99.90
41294;DHT22;27037;52.010;4.446;2022-10-16T08:56:31;15.20;99.90
41294;DHT22;27037;52.010;4.446;2022-10-16T08:58:59;15.20;99.90
41294;DHT22;27037;52.010;4.446;2022-10-16T09:01:37;15.30;99.90
41294;DHT22;27037;52.010;4.446;2022-10-16T09:14:50;15.60;99.90
41294;DHT22;27037;52.010;4.446;2022-10-16T09:17:41;15.60;99.90
41294;DHT22;27037;52.010;4.446;2022-10-16T09:20:34;15.70;99.90
41294;DHT22;27037;52.010;4.446;2022-10-16T09:25:31;15.90;99.90
41294;DHT22;27037;52.010;4.446;2022-10-16T09:27:57;15.90;99.90
41294;DHT22;27037;52.010;4.446;2022-10-16T09:30:27;16.00;99.90
41294;DHT22;27037;52.010;4.446;2022-10-16T09:32:55;16.00;99.90
41294;DHT22;27037;52.010;4.446;2022-10-16T09:38:30;16.20;99.90
41294;DHT22;27037;52.010;4.446;2022-10-16T09:40:58;16.30;99.90
41294;DHT22;27037;52.010;4.446;2022-10-16T09:43:49;16.30;99.90
41294;DHT22;27037;52.010;4.446;2022-10-16T09:48:57;16.40;99.90
41294;DHT22;27037;52.010;4.446;2022-10-16T09:51:28;16.50;99.90
41294;DHT22;27037;52.010;4.446;2022-10-16T09:54:00;16.60;99.90
41294;DHT22;27037;52.010;4.446;2022-10-16T09:56:31;16.70;99.90
41294;DHT22;27037;52.010;4.446;2022-10-16T09:59:00;16.80;99.90
41294;DHT22;27037;52.010;4.446;2022-10-16T10:01:39;16.80;99.90
41294;DHT22;27037;52.010;4.446;2022-10-16T10:04:06;16.80;99.90
41294;DHT22;27037;52.010;4.446;2022-10-16T10:06:44;16.80;99.90
41294;DHT22;27037;52.010;4.446;2022-10-16T10:09:33;16.80;99.90
41294;DHT22;27037;52.010;4.446;2022-10-16T10:12:03;16.70;99.90
41294;DHT22;27037;52.010;4.446;2022-10-16T10:14:46;16.70;99.90
41294;DHT22;27037;52.010;4.446;2022-10-16T10:17:18;16.80;99.90
41294;DHT22;27037;52.010;4.446;2022-10-16T10:22:48;17.00;99.90
41294;DHT22;27037;52.010;4.446;2022-10-16T10:30:25;17.30;99.90
41294;DHT22;27037;52.010;4.446;2022-10-16T10:33:45;17.40;99.90
41294;DHT22;27037;52.010;4.446;2022-10-16T10:47:00;17.60;99.90
41294;DHT22;27037;52.010;4.446;2022-10-16T10:49:34;17.70;99.90
41294;DHT22;27037;52.010;4.446;2022-10-16T10:54:58;17.90;99.90
41294;DHT22;27037;52.010;4.446;2022-10-16T10:57:28;17.90;99.90
41294;DHT22;27037;52.010;4.446;2022-10-16T11:00:09;17.80;99.90
41294;DHT22;27037;52.010;4.446;2022-10-16T11:03:00;17.70;99.90
41294;DHT22;27037;52.010;4.446;2022-10-16T11:08:16;17.90;99.90
41294;DHT22;27037;52.010;4.446;2022-10-16T11:16:23;18.30;99.90
41294;DHT22;27037;52.010;4.446;2022-10-16T11:19:04;18.30;99.90
41294;DHT22;27037;52.010;4.446;2022-10-16T11:22:04;18.40;99.90
41294;DHT22;27037;52.010;4.446;2022-10-16T11:24:55;18.50;99.90
41294;DHT22;27037;52.010;4.446;2022-10-16T11:30:31;18.40;99.90
41294;DHT22;27037;52.010;4.446;2022-10-16T11:35:44;18.20;99.90
41294;DHT22;27037;52.010;4.446;2022-10-16T11:38:26;18.10;99.90
41294;DHT22;27037;52.010;4.446;2022-10-16T11:40:54;18.00;99.90
41294;DHT22;27037;52.010;4.446;2022-10-16T11:43:34;17.80;99.90
41294;DHT22;27037;52.010;4.446;2022-10-16T11:46:08;17.80;99.90
41294;DHT22;27037;52.010;4.446;2022-10-16T11:57:12;17.90;99.90
41294;DHT22;27037;52.010;4.446;2022-10-16T12:02:31;17.90;99.90
41294;DHT22;27037;52.010;4.446;2022-10-16T12:05:22;18.00;99.90
41294;DHT22;27037;52.010;4.446;2022-10-16T12:10:32;18.20;99.90
41294;DHT22;27037;52.010;4.446;2022-10-16T12:13:03;18.30;99.90
41294;DHT22;27037;52.010;4.446;2022-10-16T12:15:33;18.30;99.90
41294;DHT22;27037;52.010;4.446;2022-10-16T12:17:59;18.40;99.90
41294;DHT22;27037;52.010;4.446;2022-10-16T12:20:26;18.40;99.90
41294;DHT22;27037;52.010;4.446;2022-10-16T12:23:02;18.40;99.90
41294;DHT22;27037;52.010;4.446;2022-10-16T12:25:34;18.40;99.90
41294;DHT22;27037;52.010;4.446;2022-10-16T12:28:04;18.50;99.90
41294;DHT22;27037;52.010;4.446;2022-10-16T12:30:34;18.50;99.90
41294;DHT22;27037;52.010;4.446;2022-10-16T12:33:03;18.40;99.90
41294;DHT22;27037;52.010;4.446;2022-10-16T12:35:33;18.30;99.90
41294;DHT22;27037;52.010;4.446;2022-10-16T12:41:06;18.20;99.90
41294;DHT22;27037;52.010;4.446;2022-10-16T12:43:41;18.20;99.90
41294;DHT22;27037;52.010;4.446;2022-10-16T12:48:40;18.20;99.90
41294;DHT22;27037;52.010;4.446;2022-10-16T12:53:35;18.20;99.90
41294;DHT22;27037;52.010;4.446;2022-10-16T12:58:53;18.20;99.90
41294;DHT22;27037;52.010;4.446;2022-10-16T13:07:18;18.20;99.90
41294;DHT22;27037;52.010;4.446;2022-10-16T13:09:58;18.10;99.90
41294;DHT22;27037;52.010;4.446;2022-10-16T13:28:22;17.90;99.90
41294;DHT22;27037;52.010;4.446;2022-10-16T13:30:52;17.90;99.90
41294;DHT22;27037;52.010;4.446;2022-10-16T13:33:41;17.90;99.90
41294;DHT22;27037;52.010;4.446;2022-10-16T13:36:23;17.90;99.90
41294;DHT22;27037;52.010;4.446;2022-10-16T13:39:15;17.90;99.90
41294;DHT22;27037;52.010;4.446;2022-10-16T13:41:43;17.90;99.90
41294;DHT22;27037;52.010;4.446;2022-10-16T13:44:20;17.80;99.90
41294;DHT22;27037;52.010;4.446;2022-10-16T13:46:46;17.80;99.90
41294;DHT22;27037;52.010;4.446;2022-10-16T13:49:16;17.80;99.90
41294;DHT22;27037;52.010;4.446;2022-10-16T13:51:54;17.80;99.90
41294;DHT22;27037;52.010;4.446;2022-10-16T13:54:20;17.80;99.90
41294;DHT22;27037;52.010;4.446;2022-10-16T13:56:45;17.80;99.90
41294;DHT22;27037;52.010;4.446;2022-10-16T13:59:33;17.80;99.90
41294;DHT22;27037;52.010;4.446;2022-10-16T14:02:00;17.80;99.90
41294;DHT22;27037;52.010;4.446;2022-10-16T14:04:32;17.80;99.90
41294;DHT22;27037;52.010;4.446;2022-10-16T14:06:58;17.80;99.90
41294;DHT22;27037;52.010;4.446;2022-10-16T14:09:29;17.80;99.90
41294;DHT22;27037;52.010;4.446;2022-10-16T14:12:02;17.90;99.90
41294;DHT22;27037;52.010;4.446;2022-10-16T14:14:34;17.90;99.90
41294;DHT22;27037;52.010;4.446;2022-10-16T14:17:02;17.90;99.90
41294;DHT22;27037;52.010;4.446;2022-10-16T14:19:29;17.80;99.90
41294;DHT22;27037;52.010;4.446;2022-10-16T14:21:56;17.90;99.90
41294;DHT22;27037;52.010;4.446;2022-10-16T14:24:30;17.90;99.90
41294;DHT22;27037;52.010;4.446;2022-10-16T14:26:57;17.90;99.90
41294;DHT22;27037;52.010;4.446;2022-10-16T14:29:24;17.90;99.90
41294;DHT22;27037;52.010;4.446;2022-10-16T14:32:06;17.90;99.90
41294;DHT22;27037;52.010;4.446;2022-10-16T14:34:53;17.90;99.90
41294;DHT22;27037;52.010;4.446;2022-10-16T14:37:28;17.90;99.90
41294;DHT22;27037;52.010;4.446;2022-10-16T14:39:55;17.90;99.90
41294;DHT22;27037;52.010;4.446;2022-10-16T14:42:23;17.90;99.90
41294;DHT22;27037;52.010;4.446;2022-10-16T14:44:51;17.90;99.90
41294;DHT22;27037;52.010;4.446;2022-10-16T14:47:23;17.90;99.90
41294;DHT22;27037;52.010;4.446;2022-10-16T14:49:52;17.90;99.90
41294;DHT22;27037;52.010;4.446;2022-10-16T14:52:20;17.90;99.90
41294;DHT22;27037;52.010;4.446;2022-10-16T14:54:49;17.90;99.90
41294;DHT22;27037;52.010;4.446;2022-10-16T14:57:18;17.90;99.90
41294;DHT22;27037;52.010;4.446;2022-10-16T14:59:45;17.90;99.90
41294;DHT22;27037;52.010;4.446;2022-10-16T15:04:40;17.80;99.90
41294;DHT22;27037;52.010;4.446;2022-10-16T15:07:07;17.80;99.90
41294;DHT22;27037;52.010;4.446;2022-10-16T15:09:33;17.80;99.90
41294;DHT22;27037;52.010;4.446;2022-10-16T15:11:58;17.70;99.90
41294;DHT22;27037;52.010;4.446;2022-10-16T15:14:24;17.60;99.90
41294;DHT22;27037;52.010;4.446;2022-10-16T15:16:49;17.60;99.90
41294;DHT22;27037;52.010;4.446;2022-10-16T15:19:15;17.60;99.90
41294;DHT22;27037;52.010;4.446;2022-10-16T15:21:40;17.60;99.90
41294;DHT22;27037;52.010;4.446;2022-10-16T15:24:12;17.60;99.90
41294;DHT22;27037;52.010;4.446;2022-10-16T15:26:38;17.50;99.90
41294;DHT22;27037;52.010;4.446;2022-10-16T15:29:04;17.50;99.90
41294;DHT22;27037;52.010;4.446;2022-10-16T15:31:30;17.50;99.90
41294;DHT22;27037;52.010;4.446;2022-10-16T15:33:56;17.40;99.90
41294;DHT22;27037;52.010;4.446;2022-10-16T15:36:35;17.40;99.90
41294;DHT22;27037;52.010;4.446;2022-10-16T15:39:13;17.40;99.90
41294;DHT22;27037;52.010;4.446;2022-10-16T15:41:39;17.40;99.90
41294;DHT22;27037;52.010;4.446;2022-10-16T15:44:05;17.30;99.90
41294;DHT22;27037;52.010;4.446;2022-10-16T15:46:30;17.30;99.90
41294;DHT22;27037;52.010;4.446;2022-10-16T15:48:57;17.20;99.90
41294;DHT22;27037;52.010;4.446;2022-10-16T15:51:24;17.20;99.90
41294;DHT22;27037;52.010;4.446;2022-10-16T15:53:50;17.20;99.90
41294;DHT22;27037;52.010;4.446;2022-10-16T15:56:16;17.20;99.90
41294;DHT22;27037;52.010;4.446;2022-10-16T15:58:42;17.10;99.90
41294;DHT22;27037;52.010;4.446;2022-10-16T16:01:08;17.10;99.90
41294;DHT22;27037;52.010;4.446;2022-10-16T16:03:38;17.10;99.90
41294;DHT22;27037;52.010;4.446;2022-10-16T16:06:07;17.10;99.90
41294;DHT22;27037;52.010;4.446;2022-10-16T16:08:33;17.00;99.90
41294;DHT22;27037;52.010;4.446;2022-10-16T16:11:01;17.00;99.90
41294;DHT22;27037;52.010;4.446;2022-10-16T16:13:27;16.90;99.90
41294;DHT22;27037;52.010;4.446;2022-10-16T16:15:53;16.90;99.90
41294;DHT22;27037;52.010;4.446;2022-10-16T16:18:18;16.80;99.90
41294;DHT22;27037;52.010;4.446;2022-10-16T16:20:44;16.80;99.90
41294;DHT22;27037;52.010;4.446;2022-10-16T16:23:10;16.80;99.90
41294;DHT22;27037;52.010;4.446;2022-10-16T16:25:35;16.70;99.90
41294;DHT22;27037;52.010;4.446;2022-10-16T16:28:01;16.70;99.90
41294;DHT22;27037;52.010;4.446;2022-10-16T16:30:27;16.60;99.90
41294;DHT22;27037;52.010;4.446;2022-10-16T16:32:52;16.60;99.90
41294;DHT22;27037;52.010;4.446;2022-10-16T16:35:18;16.50;99.90
41294;DHT22;27037;52.010;4.446;2022-10-16T16:37:43;16.50;99.90
41294;DHT22;27037;52.010;4.446;2022-10-16T16:40:09;16.40;99.90
41294;DHT22;27037;52.010;4.446;2022-10-16T16:42:35;16.40;99.90
41294;DHT22;27037;52.010;4.446;2022-10-16T16:45:00;16.30;99.90
41294;DHT22;27037;52.010;4.446;2022-10-16T16:47:26;16.20;99.90
41294;DHT22;27037;52.010;4.446;2022-10-16T16:49:51;16.20;99.90
41294;DHT22;27037;52.010;4.446;2022-10-16T16:52:17;16.20;99.90
41294;DHT22;27037;52.010;4.446;2022-10-16T16:54:43;16.10;99.90
41294;DHT22;27037;52.010;4.446;2022-10-16T16:57:10;16.10;99.90
41294;DHT22;27037;52.010;4.446;2022-10-16T16:59:35;16.10;99.90
41294;DHT22;27037;52.010;4.446;2022-10-16T17:02:02;16.00;99.90
41294;DHT22;27037;52.010;4.446;2022-10-16T17:04:28;16.00;99.90
41294;DHT22;27037;52.010;4.446;2022-10-16T17:06:55;16.00;99.90
41294;DHT22;27037;52.010;4.446;2022-10-16T17:09:21;15.90;99.90
41294;DHT22;27037;52.010;4.446;2022-10-16T17:11:47;15.90;99.90
41294;DHT22;27037;52.010;4.446;2022-10-16T17:14:14;15.90;99.90
41294;DHT22;27037;52.010;4.446;2022-10-16T17:16:41;15.90;99.90
41294;DHT22;27037;52.010;4.446;2022-10-16T17:19:13;15.90;99.90
41294;DHT22;27037;52.010;4.446;2022-10-16T17:21:39;15.80;99.90
41294;DHT22;27037;52.010;4.446;2022-10-16T17:24:06;15.80;99.90
41294;DHT22;27037;52.010;4.446;2022-10-16T17:26:32;15.80;99.90
41294;DHT22;27037;52.010;4.446;2022-10-16T17:29:00;15.80;99.90
41294;DHT22;27037;52.010;4.446;2022-10-16T17:31:29;15.80;99.90
41294;DHT22;27037;52.010;4.446;2022-10-16T17:33:55;15.70;99.90
41294;DHT22;27037;52.010;4.446;2022-10-16T17:36:22;15.70;99.90
41294;DHT22;27037;52.010;4.446;2022-10-16T17:38:47;15.70;99.90
41294;DHT22;27037;52.010;4.446;2022-10-16T17:41:23;15.60;99.90